sensor_id;sensor_type;location;lat;lon;timestamp;temperature;humidity
15930;DHT22;8064;51.142;4.780;2023-06-10T00:00:46;23.40;74.10
15930;DHT22;8064;51.142;4.780;2023-06-10T00:03:12;23.40;74.20
15930;DHT22;8064;51.142;4.780;2023-06-10T00:05:38;23.30;74.30
15930;DHT22;8064;51.142;4.780;2023-06-10T00:08:05;23.30;74.60
15930;DHT22;8064;51.142;4.780;2023-06-10T00:10:34;23.30;74.70
15930;DHT22;8064;51.142;4.780;2023-06-10T00:13:01;23.30;74.90
15930;DHT22;8064;51.142;4.780;2023-06-10T00:15:28;23.30;75.00
15930;DHT22;8064;51.142;4.780;2023-06-10T00:17:54;23.20;75.00
15930;DHT22;8064;51.142;4.780;2023-06-10T00:20:20;23.20;75.10
15930;DHT22;8064;51.142;4.780;2023-06-10T00:22:49;23.20;75.20
15930;DHT22;8064;51.142;4.780;2023-06-10T00:25:16;23.10;75.30
15930;DHT22;8064;51.142;4.780;2023-06-10T00:27:41;23.10;75.50
15930;DHT22;8064;51.142;4.780;2023-06-10T00:30:07;23.10;75.70
15930;DHT22;8064;51.142;4.780;2023-06-10T00:32:34;23.00;76.50
15930;DHT22;8064;51.142;4.780;2023-06-10T00:35:00;23.00;75.90
15930;DHT22;8064;51.142;4.780;2023-06-10T00:37:25;23.00;76.20
15930;DHT22;8064;51.142;4.780;2023-06-10T00:39:51;22.90;76.30
15930;DHT22;8064;51.142;4.780;2023-06-10T00:42:17;22.90;76.50
15930;DHT22;8064;51.142;4.780;2023-06-10T00:44:43;22.80;76.60
15930;DHT22;8064;51.142;4.780;2023-06-10T00:47:09;22.80;76.80
15930;DHT22;8064;51.142;4.780;2023-06-10T00:49:35;22.80;77.00
15930;DHT22;8064;51.142;4.780;2023-06-10T00:52:03;22.80;77.20
15930;DHT22;8064;51.142;4.780;2023-06-10T00:54:29;22.70;77.40
15930;DHT22;8064;51.142;4.780;2023-06-10T00:56:56;22.70;77.50
15930;DHT22;8064;51.142;4.780;2023-06-10T00:59:23;22.70;77.80
15930;DHT22;8064;51.142;4.780;2023-06-10T01:01:50;22.70;77.90
15930;DHT22;8064;51.142;4.780;2023-06-10T01:04:17;22.60;78.00
15930;DHT22;8064;51.142;4.780;2023-06-10T01:11:48;22.60;78.70
15930;DHT22;8064;51.142;4.780;2023-06-10T01:14:16;22.50;78.60
15930;DHT22;8064;51.142;4.780;2023-06-10T01:16:43;22.50;78.80
15930;DHT22;8064;51.142;4.780;2023-06-10T01:19:11;22.50;78.90
15930;DHT22;8064;51.142;4.780;2023-06-10T01:21:38;22.40;79.10
15930;DHT22;8064;51.142;4.780;2023-06-10T01:24:05;22.40;79.20
15930;DHT22;8064;51.142;4.780;2023-06-10T01:26:37;22.40;79.40
15930;DHT22;8064;51.142;4.780;2023-06-10T01:32:13;22.30;79.80
15930;DHT22;8064;51.142;4.780;2023-06-10T01:34:42;22.30;80.00
15930;DHT22;8064;51.142;4.780;2023-06-10T01:37:12;22.20;79.90
15930;DHT22;8064;51.142;4.780;2023-06-10T01:39:39;22.20;80.20
15930;DHT22;8064;51.142;4.780;2023-06-10T01:42:06;22.10;80.30
15930;DHT22;8064;51.142;4.780;2023-06-10T01:44:32;22.10;80.50
15930;DHT22;8064;51.142;4.780;2023-06-10T01:46:58;22.10;80.70
15930;DHT22;8064;51.142;4.780;2023-06-10T01:49:23;22.10;80.90
15930;DHT22;8064;51.142;4.780;2023-06-10T01:51:50;22.10;81.10
15930;DHT22;8064;51.142;4.780;2023-06-10T01:54:15;22.00;81.10
15930;DHT22;8064;51.142;4.780;2023-06-10T01:56:42;22.00;81.30
15930;DHT22;8064;51.142;4.780;2023-06-10T01:59:07;22.00;81.40
15930;DHT22;8064;51.142;4.780;2023-06-10T02:01:33;21.90;81.50
15930;DHT22;8064;51.142;4.780;2023-06-10T02:03:59;21.90;81.60
15930;DHT22;8064;51.142;4.780;2023-06-10T02:06:25;21.90;81.80
15930;DHT22;8064;51.142;4.780;2023-06-10T02:08:50;21.90;82.10
15930;DHT22;8064;51.142;4.780;2023-06-10T02:11:16;21.80;82.20
15930;DHT22;8064;51.142;4.780;2023-06-10T02:13:42;21.80;82.50
15930;DHT22;8064;51.142;4.780;2023-06-10T02:16:08;21.80;82.70
15930;DHT22;8064;51.142;4.780;2023-06-10T02:18:38;21.80;82.80
15930;DHT22;8064;51.142;4.780;2023-06-10T02:21:06;21.80;82.90
15930;DHT22;8064;51.142;4.780;2023-06-10T02:23:32;21.70;83.00
15930;DHT22;8064;51.142;4.780;2023-06-10T02:25:58;21.70;83.00
15930;DHT22;8064;51.142;4.780;2023-06-10T02:28:24;21.60;83.00
15930;DHT22;8064;51.142;4.780;2023-06-10T02:30:51;21.60;83.10
15930;DHT22;8064;51.142;4.780;2023-06-10T02:33:17;21.60;83.30
15930;DHT22;8064;51.142;4.780;2023-06-10T02:35:44;21.60;83.50
15930;DHT22;8064;51.142;4.780;2023-06-10T02:38:09;21.50;83.60
15930;DHT22;8064;51.142;4.780;2023-06-10T02:40:35;21.50;83.70
15930;DHT22;8064;51.142;4.780;2023-06-10T02:43:01;21.50;83.70
15930;DHT22;8064;51.142;4.780;2023-06-10T02:45:27;21.50;83.90
15930;DHT22;8064;51.142;4.780;2023-06-10T02:47:52;21.50;84.10
15930;DHT22;8064;51.142;4.780;2023-06-10T02:50:18;21.40;84.90
15930;DHT22;8064;51.142;4.780;2023-06-10T02:52:44;21.40;84.20
15930;DHT22;8064;51.142;4.780;2023-06-10T02:55:10;21.40;84.40
15930;DHT22;8064;51.142;4.780;2023-06-10T02:57:36;21.40;84.50
15930;DHT22;8064;51.142;4.780;2023-06-10T03:00:02;21.30;84.50
15930;DHT22;8064;51.142;4.780;2023-06-10T03:02:30;21.30;84.60
15930;DHT22;8064;51.142;4.780;2023-06-10T03:04:57;21.30;84.80
15930;DHT22;8064;51.142;4.780;2023-06-10T03:07:23;21.30;84.80
15930;DHT22;8064;51.142;4.780;2023-06-10T03:09:50;21.20;84.90
15930;DHT22;8064;51.142;4.780;2023-06-10T03:12:15;21.20;85.00
15930;DHT22;8064;51.142;4.780;2023-06-10T03:14:41;21.20;85.10
15930;DHT22;8064;51.142;4.780;2023-06-10T03:17:07;21.20;85.30
15930;DHT22;8064;51.142;4.780;2023-06-10T03:19:34;21.20;85.50
15930;DHT22;8064;51.142;4.780;2023-06-10T03:22:12;21.10;85.50
15930;DHT22;8064;51.142;4.780;2023-06-10T03:24:38;21.10;85.80
15930;DHT22;8064;51.142;4.780;2023-06-10T03:27:07;21.10;85.70
15930;DHT22;8064;51.142;4.780;2023-06-10T03:29:33;21.10;86.00
15930;DHT22;8064;51.142;4.780;2023-06-10T03:31:59;21.10;86.00
15930;DHT22;8064;51.142;4.780;2023-06-10T03:34:25;21.10;86.10
15930;DHT22;8064;51.142;4.780;2023-06-10T03:36:50;21.10;86.20
15930;DHT22;8064;51.142;4.780;2023-06-10T03:39:16;21.00;86.20
15930;DHT22;8064;51.142;4.780;2023-06-10T03:41:42;21.00;86.40
15930;DHT22;8064;51.142;4.780;2023-06-10T03:44:08;21.00;87.40
15930;DHT22;8064;51.142;4.780;2023-06-10T03:46:33;21.00;86.70
15930;DHT22;8064;51.142;4.780;2023-06-10T03:48:59;20.90;86.70
15930;DHT22;8064;51.142;4.780;2023-06-10T03:51:26;20.90;86.80
15930;DHT22;8064;51.142;4.780;2023-06-10T03:53:52;20.90;86.90
15930;DHT22;8064;51.142;4.780;2023-06-10T03:56:18;20.90;87.00
15930;DHT22;8064;51.142;4.780;2023-06-10T03:58:44;20.90;87.10
15930;DHT22;8064;51.142;4.780;2023-06-10T04:01:10;20.90;87.20
15930;DHT22;8064;51.142;4.780;2023-06-10T04:03:36;20.80;87.30
15930;DHT22;8064;51.142;4.780;2023-06-10T04:06:02;20.90;87.50
15930;DHT22;8064;51.142;4.780;2023-06-10T04:08:28;20.90;87.60
15930;DHT22;8064;51.142;4.780;2023-06-10T04:10:54;20.90;87.60
15930;DHT22;8064;51.142;4.780;2023-06-10T04:13:20;20.90;87.70
15930;DHT22;8064;51.142;4.780;2023-06-10T04:15:46;20.90;87.70
15930;DHT22;8064;51.142;4.780;2023-06-10T04:18:11;20.90;87.80
15930;DHT22;8064;51.142;4.780;2023-06-10T04:20:37;20.90;87.90
15930;DHT22;8064;51.142;4.780;2023-06-10T04:23:03;20.90;88.00
15930;DHT22;8064;51.142;4.780;2023-06-10T04:25:29;20.90;88.00
15930;DHT22;8064;51.142;4.780;2023-06-10T04:27:55;20.90;88.00
15930;DHT22;8064;51.142;4.780;2023-06-10T04:30:21;20.90;88.10
15930;DHT22;8064;51.142;4.780;2023-06-10T04:32:47;20.90;88.10
15930;DHT22;8064;51.142;4.780;2023-06-10T04:35:14;20.90;88.10
15930;DHT22;8064;51.142;4.780;2023-06-10T04:37:40;20.90;88.10
15930;DHT22;8064;51.142;4.780;2023-06-10T04:40:07;20.90;88.20
15930;DHT22;8064;51.142;4.780;2023-06-10T04:42:34;21.00;88.50
15930;DHT22;8064;51.142;4.780;2023-06-10T04:45:00;21.00;88.50
15930;DHT22;8064;51.142;4.780;2023-06-10T04:47:26;21.00;89.30
15930;DHT22;8064;51.142;4.780;2023-06-10T04:49:52;21.00;88.60
15930;DHT22;8064;51.142;4.780;2023-06-10T04:52:18;21.00;88.70
15930;DHT22;8064;51.142;4.780;2023-06-10T04:54:44;21.10;88.80
15930;DHT22;8064;51.142;4.780;2023-06-10T04:57:09;21.10;88.80
15930;DHT22;8064;51.142;4.780;2023-06-10T04:59:37;21.10;88.80
15930;DHT22;8064;51.142;4.780;2023-06-10T05:02:04;21.20;89.00
15930;DHT22;8064;51.142;4.780;2023-06-10T05:04:30;21.20;88.90
15930;DHT22;8064;51.142;4.780;2023-06-10T05:06:56;21.20;88.80
15930;DHT22;8064;51.142;4.780;2023-06-10T05:09:22;21.30;88.80
15930;DHT22;8064;51.142;4.780;2023-06-10T05:11:48;21.30;88.60
15930;DHT22;8064;51.142;4.780;2023-06-10T05:14:13;21.40;88.70
15930;DHT22;8064;51.142;4.780;2023-06-10T05:16:41;21.50;88.80
15930;DHT22;8064;51.142;4.780;2023-06-10T05:19:08;21.50;88.70
15930;DHT22;8064;51.142;4.780;2023-06-10T05:21:34;21.50;88.60
15930;DHT22;8064;51.142;4.780;2023-06-10T05:24:00;21.60;88.60
15930;DHT22;8064;51.142;4.780;2023-06-10T05:26:26;21.70;88.50
15930;DHT22;8064;51.142;4.780;2023-06-10T05:28:51;21.70;88.40
15930;DHT22;8064;51.142;4.780;2023-06-10T05:31:18;21.80;88.50
15930;DHT22;8064;51.142;4.780;2023-06-10T05:33:44;21.80;88.40
15930;DHT22;8064;51.142;4.780;2023-06-10T05:36:10;21.90;88.30
15930;DHT22;8064;51.142;4.780;2023-06-10T05:38:35;22.00;88.20
15930;DHT22;8064;51.142;4.780;2023-06-10T05:41:01;22.00;88.10
15930;DHT22;8064;51.142;4.780;2023-06-10T05:43:27;22.10;88.10
15930;DHT22;8064;51.142;4.780;2023-06-10T05:45:53;22.20;87.90
15930;DHT22;8064;51.142;4.780;2023-06-10T05:48:18;22.30;87.90
15930;DHT22;8064;51.142;4.780;2023-06-10T05:50:45;22.30;87.70
15930;DHT22;8064;51.142;4.780;2023-06-10T05:53:14;22.40;87.50
15930;DHT22;8064;51.142;4.780;2023-06-10T05:55:43;22.50;87.20
15930;DHT22;8064;51.142;4.780;2023-06-10T05:58:09;22.60;88.00
15930;DHT22;8064;51.142;4.780;2023-06-10T06:00:35;22.70;87.00
15930;DHT22;8064;51.142;4.780;2023-06-10T06:03:01;22.80;86.80
15930;DHT22;8064;51.142;4.780;2023-06-10T06:05:27;22.80;86.60
15930;DHT22;8064;51.142;4.780;2023-06-10T06:07:53;22.90;86.50
15930;DHT22;8064;51.142;4.780;2023-06-10T06:10:19;23.00;86.20
15930;DHT22;8064;51.142;4.780;2023-06-10T06:12:45;23.10;86.00
15930;DHT22;8064;51.142;4.780;2023-06-10T06:15:11;23.30;85.90
15930;DHT22;8064;51.142;4.780;2023-06-10T06:17:37;23.30;85.50
15930;DHT22;8064;51.142;4.780;2023-06-10T06:20:03;23.40;85.10
15930;DHT22;8064;51.142;4.780;2023-06-10T06:22:29;23.50;85.10
15930;DHT22;8064;51.142;4.780;2023-06-10T06:24:55;23.70;84.90
15930;DHT22;8064;51.142;4.780;2023-06-10T06:27:21;23.80;84.30
15930;DHT22;8064;51.142;4.780;2023-06-10T06:29:47;23.90;83.80
15930;DHT22;8064;51.142;4.780;2023-06-10T06:32:13;24.10;83.50
15930;DHT22;8064;51.142;4.780;2023-06-10T06:34:38;24.20;83.20
15930;DHT22;8064;51.142;4.780;2023-06-10T06:37:04;24.30;82.70
15930;DHT22;8064;51.142;4.780;2023-06-10T06:39:30;24.40;82.20
15930;DHT22;8064;51.142;4.780;2023-06-10T06:41:56;24.50;82.90
15930;DHT22;8064;51.142;4.780;2023-06-10T06:44:23;24.70;81.80
15930;DHT22;8064;51.142;4.780;2023-06-10T06:46:48;24.80;81.80
15930;DHT22;8064;51.142;4.780;2023-06-10T06:49:14;25.00;81.30
15930;DHT22;8064;51.142;4.780;2023-06-10T06:51:40;25.10;80.80
15930;DHT22;8064;51.142;4.780;2023-06-10T06:54:06;25.20;80.60
15930;DHT22;8064;51.142;4.780;2023-06-10T06:56:31;25.40;80.60
15930;DHT22;8064;51.142;4.780;2023-06-10T06:58:57;25.50;80.30
15930;DHT22;8064;51.142;4.780;2023-06-10T07:01:23;25.70;79.60
15930;DHT22;8064;51.142;4.780;2023-06-10T07:03:49;25.80;78.90
15930;DHT22;8064;51.142;4.780;2023-06-10T07:06:15;26.00;78.30
15930;DHT22;8064;51.142;4.780;2023-06-10T07:08:40;26.10;78.00
15930;DHT22;8064;51.142;4.780;2023-06-10T07:11:06;26.20;77.30
15930;DHT22;8064;51.142;4.780;2023-06-10T07:13:32;26.20;77.00
15930;DHT22;8064;51.142;4.780;2023-06-10T07:15:58;26.40;77.10
15930;DHT22;8064;51.142;4.780;2023-06-10T07:18:24;26.50;76.70
15930;DHT22;8064;51.142;4.780;2023-06-10T07:20:50;26.60;76.20
15930;DHT22;8064;51.142;4.780;2023-06-10T07:23:15;26.70;75.60
15930;DHT22;8064;51.142;4.780;2023-06-10T07:25:41;26.70;75.00
15930;DHT22;8064;51.142;4.780;2023-06-10T07:28:07;26.80;74.80
15930;DHT22;8064;51.142;4.780;2023-06-10T07:30:33;26.90;74.50
15930;DHT22;8064;51.142;4.780;2023-06-10T07:32:59;27.00;74.10
15930;DHT22;8064;51.142;4.780;2023-06-10T07:35:25;27.00;73.80
15930;DHT22;8064;51.142;4.780;2023-06-10T07:37:51;27.10;73.70
15930;DHT22;8064;51.142;4.780;2023-06-10T07:40:17;27.20;73.80
15930;DHT22;8064;51.142;4.780;2023-06-10T07:42:42;27.30;73.50
15930;DHT22;8064;51.142;4.780;2023-06-10T07:45:08;27.40;73.10
15930;DHT22;8064;51.142;4.780;2023-06-10T07:47:35;27.60;73.00
15930;DHT22;8064;51.142;4.780;2023-06-10T07:50:01;27.70;72.60
15930;DHT22;8064;51.142;4.780;2023-06-10T07:52:27;27.80;72.30
15930;DHT22;8064;51.142;4.780;2023-06-10T07:54:54;27.90;71.70
15930;DHT22;8064;51.142;4.780;2023-06-10T07:57:20;28.00;71.50
15930;DHT22;8064;51.142;4.780;2023-06-10T07:59:46;28.10;71.70
15930;DHT22;8064;51.142;4.780;2023-06-10T08:02:11;28.20;71.50
15930;DHT22;8064;51.142;4.780;2023-06-10T08:04:37;28.40;71.20
15930;DHT22;8064;51.142;4.780;2023-06-10T08:07:03;28.50;70.50
15930;DHT22;8064;51.142;4.780;2023-06-10T08:09:29;28.60;70.10
15930;DHT22;8064;51.142;4.780;2023-06-10T08:11:55;28.70;69.50
15930;DHT22;8064;51.142;4.780;2023-06-10T08:14:21;28.80;69.10
15930;DHT22;8064;51.142;4.780;2023-06-10T08:16:47;28.90;68.80
15930;DHT22;8064;51.142;4.780;2023-06-10T08:19:12;29.00;69.00
15930;DHT22;8064;51.142;4.780;2023-06-10T08:21:38;29.10;68.70
15930;DHT22;8064;51.142;4.780;2023-06-10T08:24:06;29.20;68.10
15930;DHT22;8064;51.142;4.780;2023-06-10T08:26:33;29.30;68.10
15930;DHT22;8064;51.142;4.780;2023-06-10T08:28:59;29.40;67.80
15930;DHT22;8064;51.142;4.780;2023-06-10T08:31:25;29.50;67.00
15930;DHT22;8064;51.142;4.780;2023-06-10T08:33:51;29.60;66.60
15930;DHT22;8064;51.142;4.780;2023-06-10T08:36:17;29.70;66.50
15930;DHT22;8064;51.142;4.780;2023-06-10T08:38:44;29.80;65.80
15930;DHT22;8064;51.142;4.780;2023-06-10T08:41:09;29.90;65.50
15930;DHT22;8064;51.142;4.780;2023-06-10T08:44:02;30.00;65.10
15930;DHT22;8064;51.142;4.780;2023-06-10T08:46:31;30.10;64.50
15930;DHT22;8064;51.142;4.780;2023-06-10T08:48:59;30.10;64.50
15930;DHT22;8064;51.142;4.780;2023-06-10T08:51:29;30.20;64.40
15930;DHT22;8064;51.142;4.780;2023-06-10T08:54:02;30.30;64.00
15930;DHT22;8064;51.142;4.780;2023-06-10T08:56:30;30.40;63.30
15930;DHT22;8064;51.142;4.780;2023-06-10T08:58:57;30.50;63.30
15930;DHT22;8064;51.142;4.780;2023-06-10T09:01:26;30.70;62.80
15930;DHT22;8064;51.142;4.780;2023-06-10T09:03:52;30.80;62.00
15930;DHT22;8064;51.142;4.780;2023-06-10T09:06:18;30.90;62.00
15930;DHT22;8064;51.142;4.780;2023-06-10T09:08:44;31.00;62.40
15930;DHT22;8064;51.142;4.780;2023-06-10T09:11:10;31.10;61.90
15930;DHT22;8064;51.142;4.780;2023-06-10T09:13:36;31.20;61.40
15930;DHT22;8064;51.142;4.780;2023-06-10T09:16:02;31.30;60.50
15930;DHT22;8064;51.142;4.780;2023-06-10T09:18:28;31.30;59.90
15930;DHT22;8064;51.142;4.780;2023-06-10T09:20:55;31.40;60.50
15930;DHT22;8064;51.142;4.780;2023-06-10T09:23:21;31.50;61.10
15930;DHT22;8064;51.142;4.780;2023-06-10T09:25:56;31.60;59.70
15930;DHT22;8064;51.142;4.780;2023-06-10T09:28:23;31.70;59.10
15930;DHT22;8064;51.142;4.780;2023-06-10T09:30:48;31.80;59.00
15930;DHT22;8064;51.142;4.780;2023-06-10T09:33:15;31.90;58.50
15930;DHT22;8064;51.142;4.780;2023-06-10T09:35:49;32.00;58.30
15930;DHT22;8064;51.142;4.780;2023-06-10T09:38:20;32.00;57.30
15930;DHT22;8064;51.142;4.780;2023-06-10T09:41:03;32.10;56.80
15930;DHT22;8064;51.142;4.780;2023-06-10T09:43:40;32.10;56.30
15930;DHT22;8064;51.142;4.780;2023-06-10T09:46:13;32.20;56.00
15930;DHT22;8064;51.142;4.780;2023-06-10T09:48:42;32.20;55.90
15930;DHT22;8064;51.142;4.780;2023-06-10T09:51:09;32.30;55.30
15930;DHT22;8064;51.142;4.780;2023-06-10T09:53:36;32.30;54.90
15930;DHT22;8064;51.142;4.780;2023-06-10T09:56:02;32.40;54.90
15930;DHT22;8064;51.142;4.780;2023-06-10T09:58:45;32.50;54.60
15930;DHT22;8064;51.142;4.780;2023-06-10T10:01:13;32.60;53.30
15930;DHT22;8064;51.142;4.780;2023-06-10T10:03:58;32.60;53.40
15930;DHT22;8064;51.142;4.780;2023-06-10T10:06:23;32.50;53.20
15930;DHT22;8064;51.142;4.780;2023-06-10T10:08:50;32.60;53.60
15930;DHT22;8064;51.142;4.780;2023-06-10T10:11:18;32.70;53.30
15930;DHT22;8064;51.142;4.780;2023-06-10T10:13:46;32.80;53.20
15930;DHT22;8064;51.142;4.780;2023-06-10T10:19:28;32.90;52.20
15930;DHT22;8064;51.142;4.780;2023-06-10T10:22:03;33.00;52.10
15930;DHT22;8064;51.142;4.780;2023-06-10T10:24:35;33.00;52.00
15930;DHT22;8064;51.142;4.780;2023-06-10T10:27:06;33.10;52.00
15930;DHT22;8064;51.142;4.780;2023-06-10T10:29:39;33.10;52.50
15930;DHT22;8064;51.142;4.780;2023-06-10T10:32:07;33.20;52.20
15930;DHT22;8064;51.142;4.780;2023-06-10T10:37:12;33.40;51.30
15930;DHT22;8064;51.142;4.780;2023-06-10T10:39:38;33.40;51.30
15930;DHT22;8064;51.142;4.780;2023-06-10T10:42:04;33.50;50.70
15930;DHT22;8064;51.142;4.780;2023-06-10T10:44:31;33.60;51.00
15930;DHT22;8064;51.142;4.780;2023-06-10T10:47:02;33.60;51.10
15930;DHT22;8064;51.142;4.780;2023-06-10T10:49:30;33.60;50.20
15930;DHT22;8064;51.142;4.780;2023-06-10T10:51:58;33.60;50.70
15930;DHT22;8064;51.142;4.780;2023-06-10T10:54:43;33.70;50.30
15930;DHT22;8064;51.142;4.780;2023-06-10T10:57:09;33.70;48.70
15930;DHT22;8064;51.142;4.780;2023-06-10T10:59:55;33.70;48.80
15930;DHT22;8064;51.142;4.780;2023-06-10T11:02:33;33.70;47.20
15930;DHT22;8064;51.142;4.780;2023-06-10T11:05:01;33.70;47.50
15930;DHT22;8064;51.142;4.780;2023-06-10T11:07:30;33.70;48.00
15930;DHT22;8064;51.142;4.780;2023-06-10T11:10:12;33.70;46.90
15930;DHT22;8064;51.142;4.780;2023-06-10T11:12:55;33.60;46.70
15930;DHT22;8064;51.142;4.780;2023-06-10T11:15:24;33.60;47.70
15930;DHT22;8064;51.142;4.780;2023-06-10T11:20:53;33.50;47.00
15930;DHT22;8064;51.142;4.780;2023-06-10T11:23:40;33.50;46.80
15930;DHT22;8064;51.142;4.780;2023-06-10T11:26:20;33.50;47.30
15930;DHT22;8064;51.142;4.780;2023-06-10T11:31:32;33.40;47.40
15930;DHT22;8064;51.142;4.780;2023-06-10T11:34:01;33.30;47.20
15930;DHT22;8064;51.142;4.780;2023-06-10T11:36:28;33.30;47.40
15930;DHT22;8064;51.142;4.780;2023-06-10T11:38:57;33.20;47.10
15930;DHT22;8064;51.142;4.780;2023-06-10T11:41:24;33.20;47.00
15930;DHT22;8064;51.142;4.780;2023-06-10T11:43:53;33.10;47.00
15930;DHT22;8064;51.142;4.780;2023-06-10T11:46:19;33.00;47.30
15930;DHT22;8064;51.142;4.780;2023-06-10T11:49:01;33.00;47.30
15930;DHT22;8064;51.142;4.780;2023-06-10T11:51:33;33.00;47.20
15930;DHT22;8064;51.142;4.780;2023-06-10T11:53:59;32.90;47.20
15930;DHT22;8064;51.142;4.780;2023-06-10T11:56:27;32.80;47.40
15930;DHT22;8064;51.142;4.780;2023-06-10T11:58:54;32.80;48.20
15930;DHT22;8064;51.142;4.780;2023-06-10T12:01:21;32.70;48.20
15930;DHT22;8064;51.142;4.780;2023-06-10T12:03:48;32.70;48.30
15930;DHT22;8064;51.142;4.780;2023-06-10T12:06:21;32.60;48.20
15930;DHT22;8064;51.142;4.780;2023-06-10T12:08:47;32.50;48.00
15930;DHT22;8064;51.142;4.780;2023-06-10T12:11:13;32.40;47.80
15930;DHT22;8064;51.142;4.780;2023-06-10T12:13:47;32.40;48.60
15930;DHT22;8064;51.142;4.780;2023-06-10T12:16:14;32.30;47.70
15930;DHT22;8064;51.142;4.780;2023-06-10T12:18:40;32.20;47.60
15930;DHT22;8064;51.142;4.780;2023-06-10T12:24:01;32.10;47.60
15930;DHT22;8064;51.142;4.780;2023-06-10T12:26:45;32.10;48.30
15930;DHT22;8064;51.142;4.780;2023-06-10T12:29:17;32.00;47.80
15930;DHT22;8064;51.142;4.780;2023-06-10T12:31:57;32.00;48.00
15930;DHT22;8064;51.142;4.780;2023-06-10T12:34:37;31.90;47.60
15930;DHT22;8064;51.142;4.780;2023-06-10T12:37:06;31.90;47.60
15930;DHT22;8064;51.142;4.780;2023-06-10T12:39:33;31.80;47.80
15930;DHT22;8064;51.142;4.780;2023-06-10T12:41:59;31.80;47.80
15930;DHT22;8064;51.142;4.780;2023-06-10T12:44:44;31.80;47.70
15930;DHT22;8064;51.142;4.780;2023-06-10T12:47:11;31.70;47.50
15930;DHT22;8064;51.142;4.780;2023-06-10T12:49:38;31.70;47.60
15930;DHT22;8064;51.142;4.780;2023-06-10T12:52:05;31.60;47.60
15930;DHT22;8064;51.142;4.780;2023-06-10T12:54:31;31.60;47.70
15930;DHT22;8064;51.142;4.780;2023-06-10T12:56:57;31.60;47.90
15930;DHT22;8064;51.142;4.780;2023-06-10T12:59:23;31.60;48.20
15930;DHT22;8064;51.142;4.780;2023-06-10T13:02:08;31.60;48.10
15930;DHT22;8064;51.142;4.780;2023-06-10T13:04:34;31.50;48.20
15930;DHT22;8064;51.142;4.780;2023-06-10T13:06:59;31.50;48.80
15930;DHT22;8064;51.142;4.780;2023-06-10T13:09:25;31.60;48.90
15930;DHT22;8064;51.142;4.780;2023-06-10T13:11:51;31.60;48.70
15930;DHT22;8064;51.142;4.780;2023-06-10T13:14:18;31.60;48.40
15930;DHT22;8064;51.142;4.780;2023-06-10T13:16:44;31.50;47.70
15930;DHT22;8064;51.142;4.780;2023-06-10T13:19:10;31.50;47.50
15930;DHT22;8064;51.142;4.780;2023-06-10T13:21:36;31.50;47.60
15930;DHT22;8064;51.142;4.780;2023-06-10T13:24:02;31.40;47.50
15930;DHT22;8064;51.142;4.780;2023-06-10T13:26:28;31.40;47.60
15930;DHT22;8064;51.142;4.780;2023-06-10T13:28:54;31.30;47.70
15930;DHT22;8064;51.142;4.780;2023-06-10T13:31:20;31.30;47.40
15930;DHT22;8064;51.142;4.780;2023-06-10T13:33:46;31.30;47.30
15930;DHT22;8064;51.142;4.780;2023-06-10T13:36:12;31.30;47.70
15930;DHT22;8064;51.142;4.780;2023-06-10T13:38:38;31.30;49.00
15930;DHT22;8064;51.142;4.780;2023-06-10T13:41:04;31.30;48.20
15930;DHT22;8064;51.142;4.780;2023-06-10T13:43:30;31.30;47.90
15930;DHT22;8064;51.142;4.780;2023-06-10T13:45:55;31.30;47.80
15930;DHT22;8064;51.142;4.780;2023-06-10T13:48:21;31.30;48.10
15930;DHT22;8064;51.142;4.780;2023-06-10T13:50:47;31.20;48.10
15930;DHT22;8064;51.142;4.780;2023-06-10T13:53:13;31.20;48.40
15930;DHT22;8064;51.142;4.780;2023-06-10T13:55:39;31.20;48.50
15930;DHT22;8064;51.142;4.780;2023-06-10T13:58:04;31.20;48.30
15930;DHT22;8064;51.142;4.780;2023-06-10T14:00:30;31.20;48.30
15930;DHT22;8064;51.142;4.780;2023-06-10T14:02:56;31.20;48.00
15930;DHT22;8064;51.142;4.780;2023-06-10T14:05:22;31.10;47.90
15930;DHT22;8064;51.142;4.780;2023-06-10T14:07:48;31.10;47.90
15930;DHT22;8064;51.142;4.780;2023-06-10T14:10:14;31.10;47.90
15930;DHT22;8064;51.142;4.780;2023-06-10T14:12:40;31.10;47.70
15930;DHT22;8064;51.142;4.780;2023-06-10T14:15:06;31.00;47.50
15930;DHT22;8064;51.142;4.780;2023-06-10T14:17:32;31.00;47.70
15930;DHT22;8064;51.142;4.780;2023-06-10T14:19:58;31.00;48.10
15930;DHT22;8064;51.142;4.780;2023-06-10T14:22:23;31.00;48.20
15930;DHT22;8064;51.142;4.780;2023-06-10T14:24:49;31.00;48.20
15930;DHT22;8064;51.142;4.780;2023-06-10T14:27:15;31.00;48.10
15930;DHT22;8064;51.142;4.780;2023-06-10T14:29:41;31.00;48.10
15930;DHT22;8064;51.142;4.780;2023-06-10T14:32:07;31.00;48.20
15930;DHT22;8064;51.142;4.780;2023-06-10T14:34:33;31.00;47.60
15930;DHT22;8064;51.142;4.780;2023-06-10T14:37:01;31.00;48.00
15930;DHT22;8064;51.142;4.780;2023-06-10T14:39:29;31.00;47.50
15930;DHT22;8064;51.142;4.780;2023-06-10T14:41:55;31.00;47.10
15930;DHT22;8064;51.142;4.780;2023-06-10T14:44:21;31.00;46.80
15930;DHT22;8064;51.142;4.780;2023-06-10T14:46:47;31.00;46.50
15930;DHT22;8064;51.142;4.780;2023-06-10T14:49:13;31.00;46.30
15930;DHT22;8064;51.142;4.780;2023-06-10T14:51:38;31.10;46.30
15930;DHT22;8064;51.142;4.780;2023-06-10T14:54:04;31.10;46.10
15930;DHT22;8064;51.142;4.780;2023-06-10T14:56:30;31.10;46.20
15930;DHT22;8064;51.142;4.780;2023-06-10T14:58:55;31.10;46.20
15930;DHT22;8064;51.142;4.780;2023-06-10T15:01:21;31.00;46.20
15930;DHT22;8064;51.142;4.780;2023-06-10T15:03:47;31.00;45.90
15930;DHT22;8064;51.142;4.780;2023-06-10T15:06:13;31.00;45.50
15930;DHT22;8064;51.142;4.780;2023-06-10T15:08:42;31.00;45.40
15930;DHT22;8064;51.142;4.780;2023-06-10T15:11:08;31.00;45.50
15930;DHT22;8064;51.142;4.780;2023-06-10T15:13:34;31.00;45.50
15930;DHT22;8064;51.142;4.780;2023-06-10T15:16:00;31.00;45.70
15930;DHT22;8064;51.142;4.780;2023-06-10T15:18:26;31.00;45.70
15930;DHT22;8064;51.142;4.780;2023-06-10T15:20:51;31.00;45.60
15930;DHT22;8064;51.142;4.780;2023-06-10T15:23:17;31.00;45.80
15930;DHT22;8064;51.142;4.780;2023-06-10T15:25:43;31.00;45.90
15930;DHT22;8064;51.142;4.780;2023-06-10T15:28:09;30.90;45.90
15930;DHT22;8064;51.142;4.780;2023-06-10T15:30:35;31.00;45.70
15930;DHT22;8064;51.142;4.780;2023-06-10T15:33:02;31.00;45.50
15930;DHT22;8064;51.142;4.780;2023-06-10T15:35:28;31.00;45.40
15930;DHT22;8064;51.142;4.780;2023-06-10T15:37:54;31.00;45.60
15930;DHT22;8064;51.142;4.780;2023-06-10T15:40:20;30.90;45.80
15930;DHT22;8064;51.142;4.780;2023-06-10T15:42:46;31.00;46.20
15930;DHT22;8064;51.142;4.780;2023-06-10T15:45:12;30.90;46.20
15930;DHT22;8064;51.142;4.780;2023-06-10T15:47:37;30.90;46.10
15930;DHT22;8064;51.142;4.780;2023-06-10T15:50:03;31.00;45.70
15930;DHT22;8064;51.142;4.780;2023-06-10T15:52:29;30.90;45.50
15930;DHT22;8064;51.142;4.780;2023-06-10T15:54:55;30.90;45.60
15930;DHT22;8064;51.142;4.780;2023-06-10T15:57:20;30.90;45.40
15930;DHT22;8064;51.142;4.780;2023-06-10T15:59:46;30.90;45.30
15930;DHT22;8064;51.142;4.780;2023-06-10T16:02:12;30.90;45.40
15930;DHT22;8064;51.142;4.780;2023-06-10T16:04:38;30.90;45.30
15930;DHT22;8064;51.142;4.780;2023-06-10T16:07:04;30.90;45.30